sensor_id;sensor_type;location;lat;lon;timestamp;P1;durP1;ratioP1;P2;durP2;ratioP2
18507;SDS011;9383;50.928;12.116;2022-08-01T00:01:23;4.22;;;3.90;;
18507;SDS011;9383;50.928;12.116;2022-08-01T00:03:49;4.15;;;3.78;;
18507;SDS011;9383;50.928;12.116;2022-08-01T00:06:15;4.10;;;3.78;;
18507;SDS011;9383;50.928;12.116;2022-08-01T00:08:42;4.38;;;3.85;;
18507;SDS011;9383;50.928;12.116;2022-08-01T00:11:08;5.93;;;3.90;;
18507;SDS011;9383;50.928;12.116;2022-08-01T00:13:35;4.40;;;4.03;;
18507;SDS011;9383;50.928;12.116;2022-08-01T00:16:01;4.88;;;4.20;;
18507;SDS011;9383;50.928;12.116;2022-08-01T00:18:28;5.05;;;4.43;;
18507;SDS011;9383;50.928;12.116;2022-08-01T00:20:54;4.40;;;4.00;;
18507;SDS011;9383;50.928;12.116;2022-08-01T00:23:20;4.40;;;4.05;;
18507;SDS011;9383;50.928;12.116;2022-08-01T00:25:47;4.75;;;4.28;;
18507;SDS011;9383;50.928;12.116;2022-08-01T00:28:13;5.07;;;4.68;;
18507;SDS011;9383;50.928;12.116;2022-08-01T00:30:40;4.53;;;4.22;;
18507;SDS011;9383;50.928;12.116;2022-08-01T00:33:06;5.20;;;4.25;;
18507;SDS011;9383;50.928;12.116;2022-08-01T00:35:32;4.95;;;4.63;;
18507;SDS011;9383;50.928;12.116;2022-08-01T00:37:59;5.00;;;4.70;;
18507;SDS011;9383;50.928;12.116;2022-08-01T00:40:27;5.15;;;4.75;;
18507;SDS011;9383;50.928;12.116;2022-08-01T00:42:54;5.30;;;4.90;;
18507;SDS011;9383;50.928;12.116;2022-08-01T00:45:20;6.38;;;5.78;;
18507;SDS011;9383;50.928;12.116;2022-08-01T00:47:47;6.03;;;5.53;;
18507;SDS011;9383;50.928;12.116;2022-08-01T00:50:13;6.97;;;6.25;;
18507;SDS011;9383;50.928;12.116;2022-08-01T00:52:40;5.97;;;5.53;;
18507;SDS011;9383;50.928;12.116;2022-08-01T00:55:08;6.70;;;6.10;;
18507;SDS011;9383;50.928;12.116;2022-08-01T00:57:37;6.75;;;6.10;;
18507;SDS011;9383;50.928;12.116;2022-08-01T01:00:05;5.90;;;5.40;;
18507;SDS011;9383;50.928;12.116;2022-08-01T01:02:33;6.53;;;5.80;;
18507;SDS011;9383;50.928;12.116;2022-08-01T01:05:00;5.50;;;5.07;;
18507;SDS011;9383;50.928;12.116;2022-08-01T01:13:02;7.25;;;5.57;;
18507;SDS011;9383;50.928;12.116;2022-08-01T01:20:51;5.70;;;5.30;;
18507;SDS011;9383;50.928;12.116;2022-08-01T01:27:21;6.18;;;5.57;;
18507;SDS011;9383;50.928;12.116;2022-08-01T01:30:10;5.68;;;5.18;;
18507;SDS011;9383;50.928;12.116;2022-08-01T01:32:44;6.97;;;5.82;;
18507;SDS011;9383;50.928;12.116;2022-08-01T01:35:16;5.53;;;5.10;;
18507;SDS011;9383;50.928;12.116;2022-08-01T01:38:04;5.75;;;5.20;;
18507;SDS011;9383;50.928;12.116;2022-08-01T01:40:37;6.10;;;4.70;;
18507;SDS011;9383;50.928;12.116;2022-08-01T01:43:06;5.90;;;5.20;;
18507;SDS011;9383;50.928;12.116;2022-08-01T01:45:36;6.13;;;5.63;;
18507;SDS011;9383;50.928;12.116;2022-08-01T01:48:04;5.22;;;4.82;;
18507;SDS011;9383;50.928;12.116;2022-08-01T01:50:33;5.75;;;5.28;;
18507;SDS011;9383;50.928;12.116;2022-08-01T01:53:01;5.70;;;5.20;;
18507;SDS011;9383;50.928;12.116;2022-08-01T01:55:31;5.13;;;4.63;;
18507;SDS011;9383;50.928;12.116;2022-08-01T01:57:58;5.18;;;4.68;;
18507;SDS011;9383;50.928;12.116;2022-08-01T02:00:26;5.18;;;4.68;;
18507;SDS011;9383;50.928;12.116;2022-08-01T02:02:55;4.53;;;4.15;;
18507;SDS011;9383;50.928;12.116;2022-08-01T02:05:23;4.63;;;4.25;;
18507;SDS011;9383;50.928;12.116;2022-08-01T02:07:52;5.00;;;4.28;;
18507;SDS011;9383;50.928;12.116;2022-08-01T02:10:19;5.38;;;4.53;;
18507;SDS011;9383;50.928;12.116;2022-08-01T02:12:48;3.85;;;3.60;;
18507;SDS011;9383;50.928;12.116;2022-08-01T02:15:16;4.28;;;3.97;;
18507;SDS011;9383;50.928;12.116;2022-08-01T02:17:46;4.10;;;3.80;;
18507;SDS011;9383;50.928;12.116;2022-08-01T02:20:16;4.60;;;4.05;;
18507;SDS011;9383;50.928;12.116;2022-08-01T02:22:45;4.40;;;4.03;;
18507;SDS011;9383;50.928;12.116;2022-08-01T02:25:22;3.80;;;3.50;;
18507;SDS011;9383;50.928;12.116;2022-08-01T02:28:13;3.70;;;3.40;;
18507;SDS011;9383;50.928;12.116;2022-08-01T02:30:50;4.07;;;3.75;;
18507;SDS011;9383;50.928;12.116;2022-08-01T02:35:48;3.88;;;3.58;;
18507;SDS011;9383;50.928;12.116;2022-08-01T02:38:20;5.72;;;3.00;;
18507;SDS011;9383;50.928;12.116;2022-08-01T02:40:52;3.33;;;3.13;;
18507;SDS011;9383;50.928;12.116;2022-08-01T02:43:23;3.65;;;3.30;;
18507;SDS011;9383;50.928;12.116;2022-08-01T02:45:54;3.60;;;3.30;;
18507;SDS011;9383;50.928;12.116;2022-08-01T02:48:26;3.95;;;3.17;;
18507;SDS011;9383;50.928;12.116;2022-08-01T02:50:59;3.30;;;3.10;;
18507;SDS011;9383;50.928;12.116;2022-08-01T02:53:28;3.25;;;2.97;;
18507;SDS011;9383;50.928;12.116;2022-08-01T02:56:03;3.47;;;3.17;;
18507;SDS011;9383;50.928;12.116;2022-08-01T02:58:33;3.70;;;3.40;;
18507;SDS011;9383;50.928;12.116;2022-08-01T03:01:04;3.28;;;2.95;;
18507;SDS011;9383;50.928;12.116;2022-08-01T03:03:32;3.90;;;3.60;;
18507;SDS011;9383;50.928;12.116;2022-08-01T03:06:00;4.07;;;3.67;;
18507;SDS011;9383;50.928;12.116;2022-08-01T03:08:29;3.72;;;3.45;;
18507;SDS011;9383;50.928;12.116;2022-08-01T03:10:57;4.00;;;3.40;;
18507;SDS011;9383;50.928;12.116;2022-08-01T03:13:27;3.97;;;3.60;;
18507;SDS011;9383;50.928;12.116;2022-08-01T03:15:56;4.30;;;3.10;;
18507;SDS011;9383;50.928;12.116;2022-08-01T03:18:25;3.30;;;3.10;;
18507;SDS011;9383;50.928;12.116;2022-08-01T03:20:54;2.78;;;2.58;;
18507;SDS011;9383;50.928;12.116;2022-08-01T03:23:22;4.03;;;3.22;;
18507;SDS011;9383;50.928;12.116;2022-08-01T03:25:49;4.50;;;3.30;;
18507;SDS011;9383;50.928;12.116;2022-08-01T03:28:18;3.40;;;3.20;;
18507;SDS011;9383;50.928;12.116;2022-08-01T03:30:47;3.45;;;3.25;;
18507;SDS011;9383;50.928;12.116;2022-08-01T03:33:15;3.30;;;3.10;;
18507;SDS011;9383;50.928;12.116;2022-08-01T03:35:46;4.30;;;3.17;;
18507;SDS011;9383;50.928;12.116;2022-08-01T03:38:21;3.42;;;3.13;;
18507;SDS011;9383;50.928;12.116;2022-08-01T03:41:13;4.43;;;3.15;;
18507;SDS011;9383;50.928;12.116;2022-08-01T03:43:45;3.22;;;3.03;;
18507;SDS011;9383;50.928;12.116;2022-08-01T03:46:28;3.08;;;2.88;;
18507;SDS011;9383;50.928;12.116;2022-08-01T03:49:02;4.32;;;2.90;;
18507;SDS011;9383;50.928;12.116;2022-08-01T03:51:39;3.00;;;2.80;;
18507;SDS011;9383;50.928;12.116;2022-08-01T03:54:06;3.20;;;2.90;;
18507;SDS011;9383;50.928;12.116;2022-08-01T03:56:35;3.20;;;2.90;;
18507;SDS011;9383;50.928;12.116;2022-08-01T03:59:03;3.25;;;3.00;;
18507;SDS011;9383;50.928;12.116;2022-08-01T04:01:31;3.10;;;2.72;;
18507;SDS011;9383;50.928;12.116;2022-08-01T04:03:59;4.65;;;2.80;;
18507;SDS011;9383;50.928;12.116;2022-08-01T04:06:26;3.67;;;2.55;;
18507;SDS011;9383;50.928;12.116;2022-08-01T04:08:54;3.10;;;2.90;;
18507;SDS011;9383;50.928;12.116;2022-08-01T04:11:22;2.70;;;2.50;;
18507;SDS011;9383;50.928;12.116;2022-08-01T04:13:53;2.67;;;2.47;;
18507;SDS011;9383;50.928;12.116;2022-08-01T04:16:21;2.95;;;2.75;;
18507;SDS011;9383;50.928;12.116;2022-08-01T04:18:48;3.65;;;2.97;;
18507;SDS011;9383;50.928;12.116;2022-08-01T04:21:14;3.53;;;2.30;;
18507;SDS011;9383;50.928;12.116;2022-08-01T04:23:49;2.63;;;2.42;;
18507;SDS011;9383;50.928;12.116;2022-08-01T04:26:19;2.83;;;2.42;;
18507;SDS011;9383;50.928;12.116;2022-08-01T04:28:48;2.63;;;2.42;;
18507;SDS011;9383;50.928;12.116;2022-08-01T04:31:17;2.45;;;2.25;;
18507;SDS011;9383;50.928;12.116;2022-08-01T04:33:46;2.55;;;2.35;;
18507;SDS011;9383;50.928;12.116;2022-08-01T04:36:23;2.40;;;2.30;;
18507;SDS011;9383;50.928;12.116;2022-08-01T04:38:55;3.13;;;2.50;;
18507;SDS011;9383;50.928;12.116;2022-08-01T04:41:26;2.38;;;2.20;;
18507;SDS011;9383;50.928;12.116;2022-08-01T04:43:54;2.10;;;2.00;;
18507;SDS011;9383;50.928;12.116;2022-08-01T04:46:20;2.38;;;2.22;;
18507;SDS011;9383;50.928;12.116;2022-08-01T04:48:48;2.70;;;2.40;;
18507;SDS011;9383;50.928;12.116;2022-08-01T04:51:15;6.63;;;2.60;;
18507;SDS011;9383;50.928;12.116;2022-08-01T04:53:43;2.38;;;2.15;;
18507;SDS011;9383;50.928;12.116;2022-08-01T04:56:11;2.70;;;2.20;;
18507;SDS011;9383;50.928;12.116;2022-08-01T04:58:39;2.00;;;1.90;;
18507;SDS011;9383;50.928;12.116;2022-08-01T05:01:07;2.17;;;2.08;;
18507;SDS011;9383;50.928;12.116;2022-08-01T05:03:34;2.40;;;2.20;;
18507;SDS011;9383;50.928;12.116;2022-08-01T05:06:00;2.38;;;2.17;;
18507;SDS011;9383;50.928;12.116;2022-08-01T05:08:26;2.03;;;1.92;;
18507;SDS011;9383;50.928;12.116;2022-08-01T05:10:53;1.75;;;1.65;;
18507;SDS011;9383;50.928;12.116;2022-08-01T05:13:19;2.10;;;2.00;;
18507;SDS011;9383;50.928;12.116;2022-08-01T05:15:45;2.47;;;2.00;;
18507;SDS011;9383;50.928;12.116;2022-08-01T05:18:13;2.33;;;2.17;;
18507;SDS011;9383;50.928;12.116;2022-08-01T05:20:40;2.83;;;1.83;;
18507;SDS011;9383;50.928;12.116;2022-08-01T05:23:06;2.33;;;2.10;;
18507;SDS011;9383;50.928;12.116;2022-08-01T05:25:32;2.08;;;1.95;;
18507;SDS011;9383;50.928;12.116;2022-08-01T05:27:59;2.30;;;2.20;;
18507;SDS011;9383;50.928;12.116;2022-08-01T05:30:25;1.90;;;1.80;;
18507;SDS011;9383;50.928;12.116;2022-08-01T05:32:53;2.17;;;2.00;;
18507;SDS011;9383;50.928;12.116;2022-08-01T05:35:20;1.88;;;1.77;;
18507;SDS011;9383;50.928;12.116;2022-08-01T05:37:49;2.10;;;1.90;;
18507;SDS011;9383;50.928;12.116;2022-08-01T05:40:16;2.10;;;1.88;;
18507;SDS011;9383;50.928;12.116;2022-08-01T05:42:44;1.92;;;1.83;;
18507;SDS011;9383;50.928;12.116;2022-08-01T05:45:10;2.38;;;2.28;;
18507;SDS011;9383;50.928;12.116;2022-08-01T05:47:36;2.10;;;2.00;;
18507;SDS011;9383;50.928;12.116;2022-08-01T05:50:04;2.10;;;2.00;;
18507;SDS011;9383;50.928;12.116;2022-08-01T05:52:30;2.15;;;1.83;;
18507;SDS011;9383;50.928;12.116;2022-08-01T05:54:57;2.40;;;2.20;;
18507;SDS011;9383;50.928;12.116;2022-08-01T05:57:23;2.05;;;1.90;;
18507;SDS011;9383;50.928;12.116;2022-08-01T05:59:49;2.78;;;2.38;;
18507;SDS011;9383;50.928;12.116;2022-08-01T06:02:16;2.95;;;2.65;;
18507;SDS011;9383;50.928;12.116;2022-08-01T06:04:42;2.75;;;2.55;;
18507;SDS011;9383;50.928;12.116;2022-08-01T06:07:08;2.90;;;2.60;;
18507;SDS011;9383;50.928;12.116;2022-08-01T06:09:34;3.08;;;2.58;;
18507;SDS011;9383;50.928;12.116;2022-08-01T06:12:00;4.82;;;2.70;;
18507;SDS011;9383;50.928;12.116;2022-08-01T06:14:27;2.65;;;2.45;;
18507;SDS011;9383;50.928;12.116;2022-08-01T06:16:53;3.08;;;2.60;;
18507;SDS011;9383;50.928;12.116;2022-08-01T06:19:19;2.80;;;2.60;;
18507;SDS011;9383;50.928;12.116;2022-08-01T06:21:46;2.92;;;2.72;;
18507;SDS011;9383;50.928;12.116;2022-08-01T06:24:12;3.20;;;2.90;;
18507;SDS011;9383;50.928;12.116;2022-08-01T06:26:38;2.95;;;2.75;;
18507;SDS011;9383;50.928;12.116;2022-08-01T06:29:04;5.30;;;2.70;;
18507;SDS011;9383;50.928;12.116;2022-08-01T06:31:32;5.60;;;2.58;;
18507;SDS011;9383;50.928;12.116;2022-08-01T06:33:58;2.92;;;2.63;;
18507;SDS011;9383;50.928;12.116;2022-08-01T06:36:25;2.75;;;2.55;;
18507;SDS011;9383;50.928;12.116;2022-08-01T06:38:51;4.22;;;2.63;;
18507;SDS011;9383;50.928;12.116;2022-08-01T06:41:17;2.78;;;2.47;;
18507;SDS011;9383;50.928;12.116;2022-08-01T06:43:43;3.08;;;2.60;;
18507;SDS011;9383;50.928;12.116;2022-08-01T06:46:09;3.53;;;2.60;;
18507;SDS011;9383;50.928;12.116;2022-08-01T06:48:35;4.10;;;2.83;;
18507;SDS011;9383;50.928;12.116;2022-08-01T06:51:04;4.75;;;2.83;;
18507;SDS011;9383;50.928;12.116;2022-08-01T06:53:34;3.03;;;2.72;;
18507;SDS011;9383;50.928;12.116;2022-08-01T06:56:02;2.95;;;2.58;;
18507;SDS011;9383;50.928;12.116;2022-08-01T06:58:29;2.78;;;2.55;;
18507;SDS011;9383;50.928;12.116;2022-08-01T07:00:55;2.63;;;2.42;;
18507;SDS011;9383;50.928;12.116;2022-08-01T07:03:22;2.85;;;2.47;;
18507;SDS011;9383;50.928;12.116;2022-08-01T07:05:48;2.38;;;2.25;;
18507;SDS011;9383;50.928;12.116;2022-08-01T07:08:14;2.78;;;2.58;;
18507;SDS011;9383;50.928;12.116;2022-08-01T07:10:40;2.83;;;2.63;;
18507;SDS011;9383;50.928;12.116;2022-08-01T07:13:06;3.10;;;2.40;;
18507;SDS011;9383;50.928;12.116;2022-08-01T07:15:32;4.82;;;2.17;;
18507;SDS011;9383;50.928;12.116;2022-08-01T07:17:58;2.72;;;2.00;;
18507;SDS011;9383;50.928;12.116;2022-08-01T07:20:27;2.05;;;1.60;;
18507;SDS011;9383;50.928;12.116;2022-08-01T07:22:53;2.08;;;1.88;;
18507;SDS011;9383;50.928;12.116;2022-08-01T07:25:19;1.55;;;1.45;;
18507;SDS011;9383;50.928;12.116;2022-08-01T07:27:45;1.75;;;1.65;;
18507;SDS011;9383;50.928;12.116;2022-08-01T07:30:11;2.35;;;1.70;;
18507;SDS011;9383;50.928;12.116;2022-08-01T07:32:38;1.88;;;1.60;;
18507;SDS011;9383;50.928;12.116;2022-08-01T07:35:04;2.00;;;1.90;;
18507;SDS011;9383;50.928;12.116;2022-08-01T07:37:31;2.33;;;1.75;;
18507;SDS011;9383;50.928;12.116;2022-08-01T07:39:57;1.85;;;1.40;;
18507;SDS011;9383;50.928;12.116;2022-08-01T07:42:24;1.80;;;1.70;;
18507;SDS011;9383;50.928;12.116;2022-08-01T07:44:50;1.73;;;1.63;;
18507;SDS011;9383;50.928;12.116;2022-08-01T07:47:16;1.98;;;1.60;;
18507;SDS011;9383;50.928;12.116;2022-08-01T07:49:49;2.72;;;1.40;;
18507;SDS011;9383;50.928;12.116;2022-08-01T07:52:16;2.13;;;1.70;;
18507;SDS011;9383;50.928;12.116;2022-08-01T07:54:42;1.50;;;1.40;;
18507;SDS011;9383;50.928;12.116;2022-08-01T07:57:08;1.20;;;1.10;;
18507;SDS011;9383;50.928;12.116;2022-08-01T07:59:34;1.95;;;1.20;;
18507;SDS011;9383;50.928;12.116;2022-08-01T08:02:01;1.40;;;1.40;;
18507;SDS011;9383;50.928;12.116;2022-08-01T08:04:27;3.15;;;1.23;;
18507;SDS011;9383;50.928;12.116;2022-08-01T08:06:54;1.63;;;1.50;;
18507;SDS011;9383;50.928;12.116;2022-08-01T08:09:20;1.30;;;1.02;;
18507;SDS011;9383;50.928;12.116;2022-08-01T08:11:46;1.63;;;1.45;;
18507;SDS011;9383;50.928;12.116;2022-08-01T08:14:12;2.65;;;1.08;;
18507;SDS011;9383;50.928;12.116;2022-08-01T08:16:40;1.08;;;1.02;;
18507;SDS011;9383;50.928;12.116;2022-08-01T08:19:09;2.53;;;1.08;;
18507;SDS011;9383;50.928;12.116;2022-08-01T08:21:35;1.83;;;1.15;;
18507;SDS011;9383;50.928;12.116;2022-08-01T08:24:02;1.48;;;1.30;;
18507;SDS011;9383;50.928;12.116;2022-08-01T08:26:50;1.90;;;1.40;;
18507;SDS011;9383;50.928;12.116;2022-08-01T08:29:23;1.10;;;1.10;;
18507;SDS011;9383;50.928;12.116;2022-08-01T08:31:52;1.55;;;1.00;;
18507;SDS011;9383;50.928;12.116;2022-08-01T08:34:20;1.65;;;1.10;;
18507;SDS011;9383;50.928;12.116;2022-08-01T08:36:48;1.75;;;1.50;;
18507;SDS011;9383;50.928;12.116;2022-08-01T08:39:15;1.77;;;1.42;;
18507;SDS011;9383;50.928;12.116;2022-08-01T08:41:42;1.88;;;1.58;;
18507;SDS011;9383;50.928;12.116;2022-08-01T08:44:09;2.05;;;1.17;;
18507;SDS011;9383;50.928;12.116;2022-08-01T08:46:42;1.25;;;1.15;;
18507;SDS011;9383;50.928;12.116;2022-08-01T08:49:12;2.45;;;1.33;;
18507;SDS011;9383;50.928;12.116;2022-08-01T08:51:42;1.95;;;1.20;;
18507;SDS011;9383;50.928;12.116;2022-08-01T08:54:13;1.30;;;1.20;;
18507;SDS011;9383;50.928;12.116;2022-08-01T08:56:42;1.42;;;1.20;;
18507;SDS011;9383;50.928;12.116;2022-08-01T08:59:12;6.43;;;1.10;;
18507;SDS011;9383;50.928;12.116;2022-08-01T09:01:39;3.47;;;1.30;;
18507;SDS011;9383;50.928;12.116;2022-08-01T09:04:07;0.70;;;0.70;;
18507;SDS011;9383;50.928;12.116;2022-08-01T09:06:34;1.20;;;1.10;;
18507;SDS011;9383;50.928;12.116;2022-08-01T09:09:01;1.83;;;1.73;;
18507;SDS011;9383;50.928;12.116;2022-08-01T09:11:29;1.30;;;0.77;;
18507;SDS011;9383;50.928;12.116;2022-08-01T09:14:12;0.85;;;0.85;;
18507;SDS011;9383;50.928;12.116;2022-08-01T09:17:03;1.33;;;1.00;;
18507;SDS011;9383;50.928;12.116;2022-08-01T09:19:39;3.42;;;1.10;;
18507;SDS011;9383;50.928;12.116;2022-08-01T09:22:17;1.10;;;1.10;;
18507;SDS011;9383;50.928;12.116;2022-08-01T09:24:56;1.70;;;1.60;;
18507;SDS011;9383;50.928;12.116;2022-08-01T09:27:35;1.05;;;1.05;;
18507;SDS011;9383;50.928;12.116;2022-08-01T09:30:08;0.90;;;0.90;;
18507;SDS011;9383;50.928;12.116;2022-08-01T09:35:31;1.15;;;1.15;;
18507;SDS011;9383;50.928;12.116;2022-08-01T09:38:15;1.10;;;0.90;;
18507;SDS011;9383;50.928;12.116;2022-08-01T09:43:23;1.33;;;1.23;;
18507;SDS011;9383;50.928;12.116;2022-08-01T09:45:52;1.80;;;1.50;;
18507;SDS011;9383;50.928;12.116;2022-08-01T09:48:21;1.50;;;1.40;;
18507;SDS011;9383;50.928;12.116;2022-08-01T09:50:51;1.60;;;1.30;;
18507;SDS011;9383;50.928;12.116;2022-08-01T09:53:19;1.05;;;1.00;;
18507;SDS011;9383;50.928;12.116;2022-08-01T09:55:45;0.98;;;0.82;;
18507;SDS011;9383;50.928;12.116;2022-08-01T09:58:11;1.30;;;1.08;;
18507;SDS011;9383;50.928;12.116;2022-08-01T10:00:39;1.05;;;0.90;;
18507;SDS011;9383;50.928;12.116;2022-08-01T10:03:18;2.08;;;1.00;;
18507;SDS011;9383;50.928;12.116;2022-08-01T10:05:46;0.75;;;0.70;;
18507;SDS011;9383;50.928;12.116;2022-08-01T10:08:12;0.90;;;0.90;;
18507;SDS011;9383;50.928;12.116;2022-08-01T10:10:39;1.05;;;0.73;;
18507;SDS011;9383;50.928;12.116;2022-08-01T10:13:06;1.45;;;0.85;;
18507;SDS011;9383;50.928;12.116;2022-08-01T10:15:34;1.27;;;0.77;;
18507;SDS011;9383;50.928;12.116;2022-08-01T10:18:01;0.75;;;0.75;;
18507;SDS011;9383;50.928;12.116;2022-08-01T10:20:32;0.73;;;0.43;;
18507;SDS011;9383;50.928;12.116;2022-08-01T10:23:00;2.97;;;0.82;;
18507;SDS011;9383;50.928;12.116;2022-08-01T10:25:31;0.77;;;0.77;;
18507;SDS011;9383;50.928;12.116;2022-08-01T10:28:05;0.70;;;0.70;;
18507;SDS011;9383;50.928;12.116;2022-08-01T10:30:43;0.40;;;0.40;;
18507;SDS011;9383;50.928;12.116;2022-08-01T10:33:11;1.05;;;0.90;;
18507;SDS011;9383;50.928;12.116;2022-08-01T10:35:38;0.52;;;0.52;;
18507;SDS011;9383;50.928;12.116;2022-08-01T10:38:05;1.67;;;0.60;;
18507;SDS011;9383;50.928;12.116;2022-08-01T10:40:32;0.93;;;0.80;;
18507;SDS011;9383;50.928;12.116;2022-08-01T10:42:59;2.15;;;0.50;;
18507;SDS011;9383;50.928;12.116;2022-08-01T10:45:26;0.93;;;0.45;;
18507;SDS011;9383;50.928;12.116;2022-08-01T10:50:32;0.63;;;0.43;;
18507;SDS011;9383;50.928;12.116;2022-08-01T10:53:14;0.63;;;0.63;;
18507;SDS011;9383;50.928;12.116;2022-08-01T10:55:51;0.30;;;0.30;;
18507;SDS011;9383;50.928;12.116;2022-08-01T11:06:54;0.28;;;0.28;;
18507;SDS011;9383;50.928;12.116;2022-08-01T11:09:38;1.10;;;0.60;;
18507;SDS011;9383;50.928;12.116;2022-08-01T11:12:11;0.82;;;0.40;;
18507;SDS011;9383;50.928;12.116;2022-08-01T11:17:30;0.50;;;0.50;;
18507;SDS011;9383;50.928;12.116;2022-08-01T11:20:07;1.48;;;0.28;;
18507;SDS011;9383;50.928;12.116;2022-08-01T11:25:27;0.30;;;0.30;;
18507;SDS011;9383;50.928;12.116;2022-08-01T11:30:43;0.30;;;0.30;;
18507;SDS011;9383;50.928;12.116;2022-08-01T11:33:16;0.40;;;0.40;;
18507;SDS011;9383;50.928;12.116;2022-08-01T11:41:24;1.23;;;0.50;;
18507;SDS011;9383;50.928;12.116;2022-08-01T11:43:57;0.32;;;0.32;;
18507;SDS011;9383;50.928;12.116;2022-08-01T11:46:46;1.73;;;0.43;;
18507;SDS011;9383;50.928;12.116;2022-08-01T11:52:09;0.40;;;0.40;;
18507;SDS011;9383;50.928;12.116;2022-08-01T11:54:41;0.40;;;0.40;;
18507;SDS011;9383;50.928;12.116;2022-08-01T11:57:15;0.30;;;0.30;;
18507;SDS011;9383;50.928;12.116;2022-08-01T11:59:47;0.40;;;0.30;;
18507;SDS011;9383;50.928;12.116;2022-08-01T12:02:18;0.25;;;0.25;;
18507;SDS011;9383;50.928;12.116;2022-08-01T12:04:52;0.60;;;0.30;;
18507;SDS011;9383;50.928;12.116;2022-08-01T12:07:20;0.68;;;0.30;;
18507;SDS011;9383;50.928;12.116;2022-08-01T12:09:48;0.35;;;0.35;;
18507;SDS011;9383;50.928;12.116;2022-08-01T12:12:27;0.68;;;0.38;;
18507;SDS011;9383;50.928;12.116;2022-08-01T12:14:56;0.20;;;0.20;;
18507;SDS011;9383;50.928;12.116;2022-08-01T12:17:37;0.22;;;0.22;;
18507;SDS011;9383;50.928;12.116;2022-08-01T12:20:09;0.47;;;0.32;;
18507;SDS011;9383;50.928;12.116;2022-08-01T12:22:41;0.30;;;0.30;;
18507;SDS011;9383;50.928;12.116;2022-08-01T12:25:15;0.28;;;0.28;;
18507;SDS011;9383;50.928;12.116;2022-08-01T12:27:43;0.55;;;0.43;;
18507;SDS011;9383;50.928;12.116;2022-08-01T12:30:16;0.20;;;0.20;;
18507;SDS011;9383;50.928;12.116;2022-08-01T12:32:48;0.68;;;0.30;;
18507;SDS011;9383;50.928;12.116;2022-08-01T12:35:15;0.38;;;0.38;;
18507;SDS011;9383;50.928;12.116;2022-08-01T12:37:52;2.60;;;0.55;;
18507;SDS011;9383;50.928;12.116;2022-08-01T12:40:25;0.40;;;0.40;;
18507;SDS011;9383;50.928;12.116;2022-08-01T12:42:59;0.10;;;0.10;;
18507;SDS011;9383;50.928;12.116;2022-08-01T12:45:33;0.40;;;0.38;;
18507;SDS011;9383;50.928;12.116;2022-08-01T12:48:06;1.13;;;0.40;;
18507;SDS011;9383;50.928;12.116;2022-08-01T12:50:37;1.30;;;0.35;;
18507;SDS011;9383;50.928;12.116;2022-08-01T12:53:07;0.40;;;0.40;;
18507;SDS011;9383;50.928;12.116;2022-08-01T12:55:43;0.25;;;0.22;;
18507;SDS011;9383;50.928;12.116;2022-08-01T12:58:15;0.60;;;0.45;;
18507;SDS011;9383;50.928;12.116;2022-08-01T13:00:45;1.10;;;0.20;;
18507;SDS011;9383;50.928;12.116;2022-08-01T13:03:17;1.10;;;0.30;;
18507;SDS011;9383;50.928;12.116;2022-08-01T13:08:16;4.50;;;0.60;;
18507;SDS011;9383;50.928;12.116;2022-08-01T13:10:46;0.40;;;0.40;;
18507;SDS011;9383;50.928;12.116;2022-08-01T13:13:13;0.52;;;0.30;;
18507;SDS011;9383;50.928;12.116;2022-08-01T13:15:43;0.85;;;0.47;;
18507;SDS011;9383;50.928;12.116;2022-08-01T13:18:24;0.28;;;0.28;;
18507;SDS011;9383;50.928;12.116;2022-08-01T13:29:22;0.38;;;0.30;;
18507;SDS011;9383;50.928;12.116;2022-08-01T13:32:01;0.57;;;0.40;;
18507;SDS011;9383;50.928;12.116;2022-08-01T13:34:47;0.50;;;0.50;;
18507;SDS011;9383;50.928;12.116;2022-08-01T13:37:14;1.52;;;0.28;;
18507;SDS011;9383;50.928;12.116;2022-08-01T13:39:43;0.40;;;0.40;;
18507;SDS011;9383;50.928;12.116;2022-08-01T13:42:11;0.32;;;0.30;;
18507;SDS011;9383;50.928;12.116;2022-08-01T13:44:42;0.25;;;0.25;;
18507;SDS011;9383;50.928;12.116;2022-08-01T13:47:12;0.73;;;0.40;;
18507;SDS011;9383;50.928;12.116;2022-08-01T13:49:38;0.35;;;0.35;;
18507;SDS011;9383;50.928;12.116;2022-08-01T13:52:04;0.30;;;0.30;;
18507;SDS011;9383;50.928;12.116;2022-08-01T13:54:32;1.55;;;0.40;;
18507;SDS011;9383;50.928;12.116;2022-08-01T13:56:58;1.27;;;0.22;;
18507;SDS011;9383;50.928;12.116;2022-08-01T13:59:24;0.50;;;0.40;;
18507;SDS011;9383;50.928;12.116;2022-08-01T14:01:51;1.42;;;0.50;;
18507;SDS011;9383;50.928;12.116;2022-08-01T14:04:17;0.55;;;0.30;;
18507;SDS011;9383;50.928;12.116;2022-08-01T14:06:44;0.50;;;0.50;;
18507;SDS011;9383;50.928;12.116;2022-08-01T14:09:10;0.68;;;0.30;;
18507;SDS011;9383;50.928;12.116;2022-08-01T14:11:37;0.30;;;0.30;;
18507;SDS011;9383;50.928;12.116;2022-08-01T14:14:03;0.50;;;0.50;;
18507;SDS011;9383;50.928;12.116;2022-08-01T14:16:29;0.25;;;0.25;;
18507;SDS011;9383;50.928;12.116;2022-08-01T14:18:55;0.40;;;0.40;;
18507;SDS011;9383;50.928;12.116;2022-08-01T14:21:21;0.45;;;0.45;;
18507;SDS011;9383;50.928;12.116;2022-08-01T14:23:47;0.22;;;0.22;;
18507;SDS011;9383;50.928;12.116;2022-08-01T14:26:13;0.20;;;0.20;;
18507;SDS011;9383;50.928;12.116;2022-08-01T14:28:39;0.68;;;0.50;;
18507;SDS011;9383;50.928;12.116;2022-08-01T14:31:06;0.30;;;0.30;;
18507;SDS011;9383;50.928;12.116;2022-08-01T14:33:33;0.73;;;0.50;;
18507;SDS011;9383;50.928;12.116;2022-08-01T14:35:59;0.30;;;0.30;;
18507;SDS011;9383;50.928;12.116;2022-08-01T14:38:25;0.38;;;0.38;;
18507;SDS011;9383;50.928;12.116;2022-08-01T14:40:53;0.25;;;0.25;;
18507;SDS011;9383;50.928;12.116;2022-08-01T14:43:20;0.43;;;0.43;;
18507;SDS011;9383;50.928;12.116;2022-08-01T14:45:47;0.40;;;0.40;;
18507;SDS011;9383;50.928;12.116;2022-08-01T14:48:17;0.40;;;0.40;;
18507;SDS011;9383;50.928;12.116;2022-08-01T14:50:45;1.55;;;0.50;;
18507;SDS011;9383;50.928;12.116;2022-08-01T14:53:11;0.52;;;0.30;;
18507;SDS011;9383;50.928;12.116;2022-08-01T14:55:38;5.25;;;0.80;;
18507;SDS011;9383;50.928;12.116;2022-08-01T14:58:05;1.08;;;0.60;;
18507;SDS011;9383;50.928;12.116;2022-08-01T15:00:32;2.05;;;0.63;;
18507;SDS011;9383;50.928;12.116;2022-08-01T15:02:58;0.47;;;0.32;;
18507;SDS011;9383;50.928;12.116;2022-08-01T15:05:25;0.47;;;0.47;;
18507;SDS011;9383;50.928;12.116;2022-08-01T15:07:51;0.70;;;0.70;;
18507;SDS011;9383;50.928;12.116;2022-08-01T15:10:17;1.63;;;0.55;;
18507;SDS011;9383;50.928;12.116;2022-08-01T15:12:45;1.35;;;0.70;;
18507;SDS011;9383;50.928;12.116;2022-08-01T15:15:11;0.50;;;0.50;;
18507;SDS011;9383;50.928;12.116;2022-08-01T15:17:37;2.28;;;0.60;;
18507;SDS011;9383;50.928;12.116;2022-08-01T15:20:04;2.05;;;0.80;;
18507;SDS011;9383;50.928;12.116;2022-08-01T15:22:33;0.68;;;0.68;;
18507;SDS011;9383;50.928;12.116;2022-08-01T15:25:00;0.80;;;0.80;;
18507;SDS011;9383;50.928;12.116;2022-08-01T15:27:27;2.38;;;0.63;;
18507;SDS011;9383;50.928;12.116;2022-08-01T15:29:54;2.28;;;1.00;;
18507;SDS011;9383;50.928;12.116;2022-08-01T15:32:22;0.75;;;0.75;;
18507;SDS011;9383;50.928;12.116;2022-08-01T15:34:49;1.17;;;1.08;;
18507;SDS011;9383;50.928;12.116;2022-08-01T15:37:17;0.70;;;0.70;;
18507;SDS011;9383;50.928;12.116;2022-08-01T15:39:43;0.95;;;0.60;;
18507;SDS011;9383;50.928;12.116;2022-08-01T15:42:11;2.30;;;0.85;;
18507;SDS011;9383;50.928;12.116;2022-08-01T15:44:42;1.00;;;0.88;;
18507;SDS011;9383;50.928;12.116;2022-08-01T15:47:09;0.95;;;0.73;;
18507;SDS011;9383;50.928;12.116;2022-08-01T15:49:39;0.95;;;0.88;;
18507;SDS011;9383;50.928;12.116;2022-08-01T15:52:07;1.40;;;1.30;;
18507;SDS011;9383;50.928;12.116;2022-08-01T15:54:34;1.23;;;0.70;;
18507;SDS011;9383;50.928;12.116;2022-08-01T15:57:02;1.40;;;0.52;;
18507;SDS011;9383;50.928;12.116;2022-08-01T15:59:29;1.23;;;0.60;;
18507;SDS011;9383;50.928;12.116;2022-08-01T16:01:55;0.77;;;0.75;;